Reklama

Seznam meteostanic a jejich METAR

Vyhledat místa podle abecedy:
A B C D E F G H I J K L M N O P Q R S T U V W X Y Z

Filtrovat:

ID stanice:
a/nebo
Název místa (fulltext):
 
Místo (ID)Naposledy načteno 
Šerák (Serak) 06.12.2019 00:00 UTC Zobrazit data
Místo: Šerák
Teplota: -1 °C (pocitová: -14.1 °C)
Vítr: 13 m/s z(e) 240°
Počasí:
Dohlednost: 35 km
Zákl. oblačnosti: N/A
Vlhkost: 51%
Svratouch (Svratouch) 06.12.2019 00:00 UTC Zobrazit data
Místo: Svratouch
Teplota: -4 °C (pocitová: -16.7 °C)
Vítr: 8 m/s z(e) 200°
Počasí: zataženo
Dohlednost: 2600 m
Zákl. oblačnosti: 7/8 30 m
Vlhkost: 93%
Saipan Island (PGSN) 05.12.2019 23:54 UTC Zobrazit METAR
PGSN 052354Z 07018G25KT 10SM SCT025 28/23 A2992 RMK AO2 SLP152 T02830228 10283 20228 50007 $
Salzburg (LOWS) 05.12.2019 19:50 UTC Zobrazit METAR
LOWS 051950Z 32003KT 2800 BR SCT002 BKN004 M03/M03 Q1023 TEMPO 1200 FZBCFG
Samara (UWWW) Zatím nenačteno  
San Andres Island (SKSP) 06.12.2019 00:00 UTC Zobrazit METAR
SKSP 060000Z 04015KT 9999 FEW016 BKN200 28/25 A2989
San Jose (MRPV) 06.12.2019 00:00 UTC Zobrazit METAR
MRPV 060000Z 12008KT 9999 -DZ FEW030 OVC100 20/17 A3006 NOSIG
San Juan (TJSJ) 05.12.2019 23:56 UTC Zobrazit METAR
TJSJ 052356Z 09004KT 10SM CLR 27/24 A3002 RMK AO2 SLP166 T02720239 10328 20272 53018
San Salvador (MSLP) 05.12.2019 23:50 UTC Zobrazit METAR
MSLP 052350Z 23001KT 9999 FEW077 26/23 Q1011 A2986 NOSIG RMK FU S SE SW NW
Sanaa (OYSN) 08.02.2017 13:00 UTC Zobrazit METAR
OYSN 081300Z 03008KT 9999 FEW030 25/M05 Q1022
Santiago (SCEL) 06.12.2019 00:00 UTC Zobrazit METAR
SCEL 060000Z 21014KT CAVOK 26/01 Q1014 NOSIG
Santiago (LEST) 05.12.2019 23:00 UTC Zobrazit METAR
LEST 052300Z 05003KT 020V080 CAVOK 07/07 Q1023 NOSIG
Santo Domingo (MDHE) 08.04.2012 12:00 UTC  
Santorini (LGSR) 05.12.2019 19:50 UTC Zobrazit METAR
LGSR 051950Z 36019KT 9999 BKN035 13/05 Q1025
Sao Tome (FPST) 30.11.2019 00:00 UTC Zobrazit METAR
FPST 300000Z 25002KT 9999 FEW023 26/25 Q1011 NOSIG
Sarajevo (LQSA) 05.12.2019 23:00 UTC Zobrazit METAR
LQSA 052300Z 13003KT 100V180 1000 BR BKN006 M04/M04 Q1027
Saratov (UWSS) 06.03.2017 17:00 UTC Zobrazit METAR
UWSS 061700Z CAVOK 04/00 Q1024 R12/190055 NOSIG RMK QFE756
Sarmellek (LHSM) 05.12.2019 23:45 UTC Zobrazit METAR
LHSM 052345Z AUTO 16005KT 5000 BR OVC009 00/M01 Q1026
Seinajoki (EFSI) 05.12.2019 23:50 UTC Zobrazit METAR
EFSI 052350Z AUTO 23005KT 140V300 CAVOK 04/01 Q0984
Seoul/Incheon (RKSI) 06.12.2019 00:00 UTC Zobrazit METAR
RKSI 060000Z 04007KT CAVOK M07/M16 Q1039 NOSIG
Seville (LEZL) 06.12.2019 00:00 UTC Zobrazit METAR
LEZL 060000Z 04005KT CAVOK 12/08 Q1017 NOSIG
Seychelles (FSIA) 06.12.2019 00:00 UTC Zobrazit METAR
FSIA 060000Z 00000KT 9999 FEW020 26/24 Q1009 NOSIG
Shymkent (UAII) Zatím nenačteno  
Siauliai (EYSA) 05.12.2019 22:50 UTC Zobrazit METAR
EYSA 052250Z 21011KT 9999 SCT015 OVC022 02/M00 Q1009 R14L/29//95 R14R/29//95 WHT TEMPO BKN010 GRN
Sibiu (LRSB) 06.12.2019 00:00 UTC Zobrazit METAR
LRSB 060000Z VRB01KT 4000 BR NSC M09/M10 Q1026
Simferopol' (UKFF) Zatím nenačteno  
Singapore (WSSS) 06.12.2019 00:00 UTC Zobrazit METAR
WSSS 060000Z 36003KT 300V080 9000 FEW018 SCT170 BKN300 27/23 Q1011 NOSIG
Skopje (LWSK) 06.12.2019 00:00 UTC Zobrazit METAR
LWSK 060000Z 13001KT 9999 FEW040 M02/M03 Q1029 NOSIG
Soderhamn (ESNY) Zatím nenačteno  
Sofia (LBSF) 05.12.2019 15:00 UTC Zobrazit METAR
LBSF 051500Z 09003KT 4300 BR NSC M03/M04 Q1029 TEMPO 3000 BR
Sonderborg (EKSB) 05.12.2019 21:20 UTC Zobrazit METAR
EKSB 052120Z 22016G30KT 190V260 8000 SCT010 BKN012 06/04 Q1006
Split (LDSP) 06.12.2019 00:00 UTC Zobrazit METAR
LDSP 060000Z AUTO 35005KT 9999 OVC048/// 09/03 Q1026
St. Denis (FMEE) 06.12.2019 00:00 UTC Zobrazit METAR
FMEE 060000Z AUTO 17005KT 9999 FEW027 22/19 Q1013
St. Georges (TGPY) 06.12.2019 00:00 UTC Zobrazit METAR
TGPY 060000Z 09010KT 9999 SCT017 26/24 Q1013 NOSIG
St. Johns (TAPA) 06.12.2019 00:00 UTC Zobrazit METAR
TAPA 060000Z 10007KT 060V130 9999 FEW020 27/22 Q1017 NOSIG
St. Petersburg (ULLI) Zatím nenačteno  
St. Pierre Island (LFVP) 05.12.2019 22:00 UTC Zobrazit METAR
LFVP 052200Z 24007KT 210V270 9999 BKN011 02/01 Q0998 NOSIG
Stavanger (ENZV) 05.12.2019 23:50 UTC Zobrazit METAR
ENZV 052350Z 20010KT 9000 RA BKN004 09/08 Q0984
Stockholm (ESSA) 05.12.2019 23:50 UTC Zobrazit METAR
ESSA 052350Z 22015KT 9999 BKN028 06/02 Q0991 R01L/19//95 R08/19//95 R01R/19//95 NOSIG
Strasbourg (LFST) 04.12.2019 15:00 UTC Zobrazit METAR
LFST 041500Z AUTO 20006KT 4100 BR NSC 02/00 Q1020 BECMG 8000 NSW
Stuttgart (EDDS) 05.12.2019 23:50 UTC Zobrazit METAR
EDDS 052350Z VRB02KT CAVOK M04/M05 Q1021
Reklama

Počasí na Váš email

Emaily jsou bez reklamy a bez spamu



Odhlásit newsletter

Reklama


Lunární kalendář

  • 12.12.
  • 19.12.
  • 26.12.
  • 03.01.



Reklama


Reklama
Povinné ručení
Reklama



Reklama